Time;durP1;ratioP1;P1;durP2;ratioP2;P2;SDS_P1;SDS_P2;PMS_P1;PMS_P2;Temp;Humidity;BMP_temperature;BMP_pressure;BME280_temperature;BME280_humidity;BME280_pressure;Samples;Min_cycle;Max_cycle;Signal;HPM_P1;HPM_P2
2020/12/01 00:00:16;;;;;;;11.02;2.45;;;18.30;34.60;;;;;;5076516;28;20028;-71
2020/12/01 00:02:43;;;;;;;9.98;2.33;;;18.20;35.10;;;;;;5087083;28;20052;-70
2020/12/01 00:05:12;;;;;;;11.38;2.30;;;18.20;35.30;;;;;;5087924;28;20025;-70
2020/12/01 00:07:39;;;;;;;11.85;2.40;;;18.00;35.90;;;;;;5092053;28;20445;-71
2020/12/01 00:10:07;;;;;;;24.08;2.55;;;17.90;36.80;;;;;;5085881;28;20060;-71
2020/12/01 00:12:35;;;;;;;7.38;2.75;;;17.80;37.20;;;;;;5079068;28;20534;-70
2020/12/01 00:15:01;;;;;;;11.02;2.78;;;17.90;37.90;;;;;;5072186;28;20032;-70
2020/12/01 00:17:28;;;;;;;6.82;2.70;;;17.70;38.30;;;;;;5074852;28;20020;-71
2020/12/01 00:19:54;;;;;;;6.60;3.03;;;17.70;38.70;;;;;;5083266;28;20419;-72
2020/12/01 00:22:20;;;;;;;10.40;3.03;;;17.80;39.40;;;;;;5079639;28;20034;-71
2020/12/01 00:24:47;;;;;;;6.63;3.00;;;17.80;39.70;;;;;;5080718;28;20093;-71
2020/12/01 00:27:13;;;;;;;5.68;2.55;;;17.70;39.50;;;;;;5057832;28;20078;-71
2020/12/01 00:29:40;;;;;;;10.50;2.03;;;17.70;39.80;;;;;;5072623;28;20093;-71
2020/12/01 00:32:06;;;;;;;6.72;2.75;;;17.60;40.00;;;;;;5068931;28;20407;-71
2020/12/01 00:34:33;;;;;;;11.57;2.85;;;17.70;40.20;;;;;;5072560;28;20032;-72
2020/12/01 00:37:03;;;;;;;9.20;3.20;;;17.60;40.10;;;;;;5071076;28;20112;-71
2020/12/01 00:39:30;;;;;;;6.68;2.38;;;17.50;39.70;;;;;;5074790;28;20048;-71
2020/12/01 00:41:56;;;;;;;6.82;2.63;;;17.40;39.90;;;;;;5068774;28;20025;-73
2020/12/01 00:44:23;;;;;;;4.18;1.95;;;17.30;40.00;;;;;;5071029;28;20031;-72
2020/12/01 00:46:50;;;;;;;7.30;2.17;;;17.10;40.30;;;;;;5074000;28;20448;-72
2020/12/01 00:49:16;;;;;;;6.40;2.60;;;17.00;40.20;;;;;;5075120;28;20469;-72
2020/12/01 00:51:43;;;;;;;9.95;2.55;;;16.90;40.30;;;;;;5077830;28;20031;-73
2020/12/01 00:54:10;;;;;;;6.85;2.45;;;16.80;40.20;;;;;;5072565;28;20031;-71
2020/12/01 00:56:37;;;;;;;7.93;2.70;;;16.70;40.30;;;;;;5074150;28;20033;-71
2020/12/01 00:59:03;;;;;;;13.80;2.63;;;16.40;40.40;;;;;;5077113;28;20061;-73
2020/12/01 01:01:31;;;;;;;7.45;2.15;;;16.30;40.50;;;;;;5072725;28;20029;-72
2020/12/01 01:03:57;;;;;;;4.53;2.00;;;16.10;40.80;;;;;;5073440;28;20021;-71
2020/12/01 01:06:24;;;;;;;4.88;2.35;;;15.90;41.30;;;;;;5072964;28;20021;-71
2020/12/01 01:08:50;;;;;;;14.07;3.53;;;15.80;41.20;;;;;;5075754;28;20132;-72
2020/12/01 01:11:17;;;;;;;14.70;8.85;;;15.70;41.40;;;;;;5074349;28;20035;-72
2020/12/01 01:13:43;;;;;;;11.70;6.90;;;15.60;41.10;;;;;;5077301;28;20025;-72
2020/12/01 01:16:10;;;;;;;10.25;4.38;;;15.50;41.00;;;;;;5074046;28;20036;-72
2020/12/01 01:18:36;;;;;;;7.38;4.53;;;15.30;41.40;;;;;;5070046;28;20055;-72
2020/12/01 01:21:02;;;;;;;7.97;2.75;;;15.00;41.80;;;;;;5077120;28;20024;-71
2020/12/01 01:23:29;;;;;;;4.65;2.92;;;15.00;41.90;;;;;;5072006;28;20027;-73
2020/12/01 01:25:55;;;;;;;5.75;3.00;;;14.90;41.70;;;;;;5070129;28;20099;-72
2020/12/01 01:28:22;;;;;;;4.68;2.85;;;14.70;42.20;;;;;;5067858;28;20025;-74
2020/12/01 01:30:48;;;;;;;7.25;3.47;;;14.50;42.30;;;;;;5069467;28;20036;-71
2020/12/01 01:33:15;;;;;;;9.57;2.72;;;14.40;42.40;;;;;;5069363;28;20024;-72
2020/12/01 01:35:41;;;;;;;5.05;2.42;;;14.40;42.50;;;;;;5071011;28;20032;-71
2020/12/01 01:38:09;;;;;;;7.63;3.10;;;14.40;42.00;;;;;;5073770;28;20099;-74
2020/12/01 01:40:35;;;;;;;8.02;2.75;;;14.20;41.90;;;;;;5072100;28;20025;-75
2020/12/01 01:43:02;;;;;;;9.30;3.58;;;14.00;42.70;;;;;;5069406;28;20659;-70
2020/12/01 01:45:49;;;;;;;4.57;1.95;;;13.80;43.50;;;;;;5072834;28;20032;-73
2020/12/01 01:48:23;;;;;;;2.42;2.15;;;13.70;41.80;;;;;;5072359;28;20029;-73
2020/12/01 01:51:17;;;;;;;6.68;2.15;;;13.70;41.80;;;;;;5068684;28;20033;-71
2020/12/01 01:53:46;;;;;;;3.75;2.10;;;13.90;41.30;;;;;;5070182;28;20028;-73
2020/12/01 01:56:19;;;;;;;2.85;1.83;;;13.80;41.50;;;;;;5067110;28;20024;-73
2020/12/01 01:58:47;;;;;;;4.47;2.33;;;13.70;41.90;;;;;;5075410;28;20107;-72
2020/12/01 02:01:17;;;;;;;5.03;2.60;;;13.70;42.20;;;;;;5074711;28;20031;-73
2020/12/01 02:03:48;;;;;;;3.40;2.92;;;13.60;42.20;;;;;;5076078;28;20103;-73
2020/12/01 02:06:20;;;;;;;4.97;2.92;;;13.50;42.70;;;;;;5084481;28;20024;-73
2020/12/01 02:09:01;;;;;;;2.75;2.35;;;13.40;43.10;;;;;;5087928;28;20032;-73
2020/12/01 02:11:30;;;;;;;4.88;2.80;;;13.30;43.30;;;;;;5084451;28;20477;-73
2020/12/01 02:14:18;;;;;;;7.65;3.10;;;13.20;42.80;;;;;;5078081;28;20029;-71
2020/12/01 02:16:49;;;;;;;5.28;3.25;;;13.20;42.70;;;;;;5077466;28;20025;-72
2020/12/01 02:19:20;;;;;;;6.20;3.88;;;13.20;42.60;;;;;;5080319;28;20360;-72
2020/12/01 02:21:46;;;;;;;4.47;3.38;;;13.20;42.30;;;;;;5091952;28;20067;-74
2020/12/01 02:24:20;;;;;;;5.53;4.25;;;13.10;42.30;;;;;;5085301;28;20381;-75
2020/12/01 02:26:55;;;;;;;8.80;3.60;;;13.10;42.40;;;;;;5077096;28;20028;-71
2020/12/01 02:29:25;;;;;;;6.45;3.42;;;13.10;42.30;;;;;;5077574;28;20074;-74
2020/12/01 02:31:51;;;;;;;5.60;2.97;;;13.00;42.10;;;;;;5075246;28;20024;-74
2020/12/01 02:34:21;;;;;;;6.82;3.25;;;12.80;42.80;;;;;;5073066;28;21212;-72
2020/12/01 02:36:47;;;;;;;4.28;2.92;;;12.70;42.80;;;;;;5080449;28;20036;-74
2020/12/01 02:39:19;;;;;;;5.40;3.10;;;12.70;43.10;;;;;;5077215;28;20024;-73
2020/12/01 02:41:45;;;;;;;4.53;3.25;;;12.60;43.20;;;;;;5074838;28;20095;-73
2020/12/01 02:44:12;;;;;;;4.85;3.15;;;12.60;42.90;;;;;;5074712;28;20070;-73
2020/12/01 02:46:38;;;;;;;5.60;3.17;;;12.60;43.20;;;;;;5074832;28;20361;-73
2020/12/01 02:49:08;;;;;;;5.22;2.97;;;12.50;44.30;;;;;;5075290;28;20036;-74
2020/12/01 02:51:35;;;;;;;3.28;2.72;;;12.70;43.00;;;;;;5080965;28;20028;-73
2020/12/01 02:54:02;;;;;;;4.60;2.58;;;12.80;42.60;;;;;;5086856;28;20025;-74
2020/12/01 02:56:29;;;;;;;6.78;2.55;;;13.00;42.20;;;;;;5075257;28;20389;-74
2020/12/01 02:58:55;;;;;;;3.95;2.67;;;13.10;41.90;;;;;;5074027;28;20016;-74
2020/12/01 03:01:22;;;;;;;4.65;3.10;;;13.30;41.50;;;;;;5074274;28;21698;-73
2020/12/01 03:03:48;;;;;;;6.25;3.00;;;13.40;41.40;;;;;;5074752;28;20024;-73
2020/12/01 03:06:19;;;;;;;7.78;2.70;;;13.40;41.70;;;;;;5072676;28;20362;-73
2020/12/01 03:08:46;;;;;;;5.80;2.60;;;13.40;41.80;;;;;;5075820;28;20020;-73
2020/12/01 03:11:13;;;;;;;8.48;2.70;;;13.30;42.00;;;;;;5075523;28;20346;-73
2020/12/01 03:13:40;;;;;;;13.88;3.15;;;13.30;42.30;;;;;;5073582;28;20033;-73
2020/12/01 03:16:10;;;;;;;4.32;2.72;;;13.30;42.60;;;;;;5078869;28;20024;-73
2020/12/01 03:18:38;;;;;;;7.13;3.03;;;13.40;42.40;;;;;;5074614;28;20045;-73
2020/12/01 03:21:06;;;;;;;5.55;2.80;;;13.40;42.50;;;;;;5081623;28;20043;-73
2020/12/01 03:23:33;;;;;;;6.38;3.03;;;13.40;42.60;;;;;;5083123;28;20023;-73
2020/12/01 03:26:00;;;;;;;3.67;2.50;;;13.40;42.80;;;;;;5079359;28;20040;-73
2020/12/01 03:28:27;;;;;;;4.28;2.63;;;13.30;42.90;;;;;;5069795;28;20021;-73
2020/12/01 03:30:54;;;;;;;4.57;2.83;;;13.10;43.40;;;;;;5072087;28;20040;-73
2020/12/01 03:33:21;;;;;;;6.18;3.10;;;13.10;43.60;;;;;;5072498;28;20047;-72
2020/12/01 03:35:48;;;;;;;2.35;2.15;;;13.10;43.30;;;;;;5076792;28;20032;-73
2020/12/01 03:38:14;;;;;;;3.45;2.42;;;13.00;43.40;;;;;;5072911;28;20074;-73
2020/12/01 03:40:41;;;;;;;6.57;3.70;;;13.00;43.70;;;;;;5072224;28;20016;-74
2020/12/01 03:43:07;;;;;;;10.68;4.45;;;12.90;43.30;;;;;;5077307;28;20108;-74
2020/12/01 03:45:34;;;;;;;8.50;5.95;;;12.90;43.50;;;;;;5069519;28;20035;-74
2020/12/01 03:48:01;;;;;;;6.50;4.47;;;12.80;43.60;;;;;;5075686;28;20062;-72
2020/12/01 03:50:28;;;;;;;10.43;7.55;;;12.80;43.60;;;;;;5070277;28;20028;-74
2020/12/01 03:52:56;;;;;;;7.20;4.07;;;12.70;43.60;;;;;;5072880;28;20035;-74
2020/12/01 03:55:23;;;;;;;7.50;3.50;;;12.70;43.30;;;;;;5073587;28;20086;-74
2020/12/01 03:57:50;;;;;;;4.22;2.72;;;12.70;43.20;;;;;;5069412;28;20063;-74
2020/12/01 04:00:23;;;;;;;4.53;3.22;;;12.60;43.30;;;;;;5068996;28;20017;-74
2020/12/01 04:02:50;;;;;;;7.25;3.33;;;12.40;44.00;;;;;;5074971;28;20460;-73
2020/12/01 04:05:19;;;;;;;5.75;3.72;;;12.30;44.20;;;;;;5071292;28;20040;-75
2020/12/01 04:07:46;;;;;;;2.80;2.53;;;12.20;44.10;;;;;;5069768;28;20037;-73
2020/12/01 04:10:17;;;;;;;5.57;3.90;;;12.10;44.70;;;;;;5071570;28;20440;-74
2020/12/01 04:12:44;;;;;;;3.13;2.75;;;12.00;44.40;;;;;;5074791;28;20111;-75
2020/12/01 04:15:11;;;;;;;4.40;3.33;;;12.00;44.20;;;;;;5071356;28;20036;-74
2020/12/01 04:17:37;;;;;;;3.65;3.00;;;11.90;44.00;;;;;;5068241;28;20048;-73
2020/12/01 04:20:07;;;;;;;6.00;3.22;;;11.90;43.80;;;;;;5068970;28;20024;-72
2020/12/01 04:22:34;;;;;;;3.30;2.03;;;11.90;43.50;;;;;;5069291;28;20048;-72
2020/12/01 04:25:03;;;;;;;6.97;3.53;;;11.80;43.70;;;;;;5079443;28;20044;-72
2020/12/01 04:27:30;;;;;;;9.32;2.90;;;11.80;43.30;;;;;;5073826;28;20094;-72
2020/12/01 04:29:56;;;;;;;7.55;2.63;;;11.80;43.50;;;;;;5070273;28;20040;-72
2020/12/01 04:32:23;;;;;;;4.15;2.67;;;11.70;43.40;;;;;;5073444;28;20028;-72
2020/12/01 04:34:50;;;;;;;8.70;2.65;;;11.60;43.40;;;;;;5074086;28;20056;-72
2020/12/01 04:37:16;;;;;;;4.03;2.88;;;11.50;43.40;;;;;;5075278;28;20465;-72
2020/12/01 04:39:43;;;;;;;4.22;3.78;;;11.50;43.60;;;;;;5072290;28;20111;-72
2020/12/01 04:42:17;;;;;;;3.80;2.80;;;11.50;43.80;;;;;;5078466;28;20029;-72
2020/12/01 04:44:55;;;;;;;4.78;3.30;;;11.40;43.60;;;;;;5070896;28;20357;-73
2020/12/01 04:47:27;;;;;;;5.60;2.50;;;11.40;43.70;;;;;;5074052;28;20024;-75
2020/12/01 04:50:06;;;;;;;3.88;3.28;;;11.30;43.90;;;;;;5072506;28;20024;-73
2020/12/01 04:52:35;;;;;;;9.93;2.72;;;11.20;44.30;;;;;;5055291;28;20029;-72
2020/12/01 04:55:35;;;;;;;3.67;1.98;;;11.10;44.40;;;;;;5075113;28;20025;-73
2020/12/01 04:58:43;;;;;;;3.58;2.63;;;11.10;44.20;;;;;;5074117;28;20021;-73
2020/12/01 05:01:39;;;;;;;7.47;4.22;;;11.00;44.10;;;;;;5080594;28;20024;-73
2020/12/01 05:04:17;;;;;;;6.68;2.80;;;11.00;44.70;;;;;;5052859;28;20476;-72
2020/12/01 05:07:14;;;;;;;5.70;3.00;;;10.90;45.40;;;;;;5072807;28;20043;-72
2020/12/01 05:09:44;;;;;;;5.68;3.35;;;10.80;45.00;;;;;;5066722;28;20465;-74
2020/12/01 05:12:37;;;;;;;6.95;3.40;;;10.80;44.90;;;;;;5065396;28;20119;-72
2020/12/01 05:15:20;;;;;;;7.78;3.05;;;10.70;44.80;;;;;;5074284;28;20036;-72
2020/12/01 05:18:15;;;;;;;6.32;3.83;;;10.90;44.60;;;;;;5070348;28;20039;-72
2020/12/01 05:20:52;;;;;;;4.03;2.95;;;11.20;44.50;;;;;;5063750;28;20455;-73
2020/12/01 05:23:40;;;;;;;5.45;4.18;;;11.00;44.10;;;;;;5072453;28;20035;-72
2020/12/01 05:26:10;;;;;;;5.65;3.97;;;10.90;44.50;;;;;;5073147;28;20021;-75
2020/12/01 05:28:47;;;;;;;4.80;3.00;;;10.80;44.60;;;;;;5075454;28;20044;-72
2020/12/01 05:31:14;;;;;;;9.23;3.38;;;10.80;44.40;;;;;;5071265;28;20029;-72
2020/12/01 05:33:40;;;;;;;5.15;2.80;;;10.90;44.50;;;;;;5065206;28;20033;-73
2020/12/01 05:36:16;;;;;;;4.95;3.00;;;11.00;44.10;;;;;;5070794;28;20089;-73
2020/12/01 05:38:43;;;;;;;5.40;2.80;;;11.20;43.50;;;;;;5079114;28;20020;-72
2020/12/01 05:41:25;;;;;;;3.35;3.13;;;11.30;43.20;;;;;;5083072;28;20027;-75
2020/12/01 05:44:01;;;;;;;2.97;2.33;;;11.30;43.20;;;;;;5078703;28;20024;-72
2020/12/01 05:46:42;;;;;;;3.63;2.40;;;11.20;43.10;;;;;;5076553;28;20052;-72
2020/12/01 05:49:30;;;;;;;3.92;2.10;;;11.10;43.50;;;;;;5080100;28;20103;-72
2020/12/01 05:52:12;;;;;;;3.53;2.67;;;11.00;44.70;;;;;;5081432;28;20035;-72
2020/12/01 05:54:42;;;;;;;2.65;2.45;;;10.90;44.70;;;;;;5076117;28;20032;-72
2020/12/01 05:57:27;;;;;;;3.80;2.80;;;10.80;44.90;;;;;;5079391;28;20393;-72
2020/12/01 06:00:03;;;;;;;4.18;3.20;;;10.80;45.10;;;;;;5079611;28;20036;-72
2020/12/01 06:02:56;;;;;;;2.58;2.38;;;10.70;45.20;;;;;;5078204;28;20023;-72
2020/12/01 06:05:24;;;;;;;4.50;2.85;;;10.60;45.50;;;;;;5078150;28;20035;-73
2020/12/01 06:07:55;;;;;;;2.83;2.30;;;10.60;45.30;;;;;;5078118;28;20031;-71
2020/12/01 06:10:34;;;;;;;3.97;3.22;;;10.50;45.60;;;;;;5072456;28;20028;-72
2020/12/01 06:13:03;;;;;;;4.30;3.13;;;10.50;45.20;;;;;;5075669;28;20025;-72
2020/12/01 06:15:32;;;;;;;2.72;2.50;;;10.50;45.70;;;;;;5073480;28;20025;-72
2020/12/01 06:18:15;;;;;;;4.13;2.80;;;10.40;45.30;;;;;;5066501;28;20137;-71
2020/12/01 06:21:05;;;;;;;4.15;2.70;;;10.40;44.80;;;;;;5072291;28;20027;-73
2020/12/01 06:24:01;;;;;;;4.10;3.08;;;10.10;46.20;;;;;;5078857;28;20467;-73
2020/12/01 06:26:53;;;;;;;3.10;2.63;;;10.10;45.40;;;;;;5071176;28;20353;-72
2020/12/01 06:29:35;;;;;;;5.35;2.85;;;10.20;45.60;;;;;;5064297;28;20044;-72
2020/12/01 06:32:16;;;;;;;4.03;2.63;;;10.10;45.50;;;;;;5076601;28;20025;-72
2020/12/01 06:34:57;;;;;;;4.38;3.35;;;10.10;45.40;;;;;;5065353;28;20028;-72
2020/12/01 06:37:49;;;;;;;4.47;3.30;;;10.10;45.50;;;;;;5076071;28;20354;-73
2020/12/01 06:40:37;;;;;;;3.85;2.75;;;10.10;45.20;;;;;;5083153;28;20470;-72
2020/12/01 06:43:12;;;;;;;7.82;2.67;;;10.10;45.70;;;;;;5071684;28;20024;-72
2020/12/01 06:45:41;;;;;;;3.40;3.00;;;10.10;45.40;;;;;;5084438;28;20035;-72
2020/12/01 06:48:38;;;;;;;4.70;2.72;;;10.10;45.90;;;;;;5081041;28;20020;-72
2020/12/01 06:51:09;;;;;;;3.83;2.50;;;10.40;45.80;;;;;;5077136;28;20028;-72
2020/12/01 06:53:38;;;;;;;5.80;3.15;;;10.30;45.50;;;;;;5076329;28;20028;-72
2020/12/01 06:56:11;;;;;;;3.35;2.30;;;10.20;45.80;;;;;;5075508;28;20025;-72
2020/12/01 06:58:49;;;;;;;6.88;3.17;;;10.20;46.10;;;;;;5070505;28;20028;-71
2020/12/01 07:01:18;;;;;;;4.38;3.10;;;10.30;46.30;;;;;;5086575;28;20070;-72
2020/12/01 07:03:46;;;;;;;8.15;2.85;;;10.30;46.50;;;;;;5076819;28;20127;-72
2020/12/01 07:06:22;;;;;;;3.58;3.05;;;10.30;46.40;;;;;;5079847;28;20035;-72
2020/12/01 07:08:49;;;;;;;4.90;2.92;;;10.40;46.70;;;;;;5078708;28;20349;-72
2020/12/01 07:11:28;;;;;;;4.20;2.67;;;10.40;46.60;;;;;;5077907;28;20114;-73
2020/12/01 07:14:01;;;;;;;3.25;2.92;;;10.50;46.50;;;;;;5071631;28;21936;-72
2020/12/01 07:17:00;;;;;;;5.70;3.08;;;10.50;46.60;;;;;;5077594;28;20078;-72
2020/12/01 07:19:32;;;;;;;4.88;3.33;;;10.40;46.50;;;;;;5060851;28;20048;-72
2020/12/01 07:22:10;;;;;;;4.90;2.92;;;10.40;47.10;;;;;;5080062;28;20102;-72
2020/12/01 07:24:54;;;;;;;4.60;2.42;;;10.40;47.10;;;;;;5076056;28;20074;-72
2020/12/01 07:27:58;;;;;;;6.22;2.67;;;10.40;47.30;;;;;;5069802;28;20029;-72
2020/12/01 07:30:28;;;;;;;4.65;2.80;;;10.30;47.40;;;;;;5078361;28;20024;-72
2020/12/01 07:32:57;;;;;;;5.40;2.70;;;10.30;47.20;;;;;;5083656;28;20404;-72
2020/12/01 07:35:45;;;;;;;3.35;2.75;;;10.20;48.10;;;;;;5090128;28;20461;-72
2020/12/01 07:38:21;;;;;;;6.32;3.00;;;10.00;48.40;;;;;;5085920;28;20029;-73
2020/12/01 07:40:55;;;;;;;12.95;3.85;;;10.00;48.70;;;;;;5077903;28;20027;-73
2020/12/01 07:43:23;;;;;;;6.78;3.92;;;10.00;48.90;;;;;;5104902;28;20111;-72
2020/12/01 07:45:59;;;;;;;5.70;3.47;;;9.70;49.50;;;;;;5079327;28;20034;-72
2020/12/01 07:48:26;;;;;;;7.28;3.58;;;9.80;49.40;;;;;;5073243;28;20442;-72
2020/12/01 07:51:03;;;;;;;5.40;2.85;;;9.90;48.30;;;;;;5074106;28;20024;-72
2020/12/01 07:53:34;;;;;;;5.55;3.15;;;9.90;48.80;;;;;;5075137;28;20053;-72
2020/12/01 07:56:07;;;;;;;4.22;3.05;;;9.90;49.70;;;;;;5078993;28;20052;-72
2020/12/01 07:58:33;;;;;;;5.72;3.15;;;9.80;48.90;;;;;;5076045;28;20020;-73
2020/12/01 08:01:14;;;;;;;6.15;3.53;;;9.80;49.90;;;;;;5084855;28;20024;-72
2020/12/01 08:03:40;;;;;;;8.98;3.38;;;9.70;48.70;;;;;;5079527;28;20036;-72
2020/12/01 08:06:14;;;;;;;7.97;4.03;;;9.70;49.50;;;;;;5078518;28;20028;-72
2020/12/01 08:08:43;;;;;;;8.23;3.80;;;9.60;48.90;;;;;;5083262;28;20039;-72
2020/12/01 08:11:14;;;;;;;9.63;3.70;;;9.60;50.50;;;;;;5085909;28;20093;-72
2020/12/01 08:13:43;;;;;;;8.60;3.67;;;9.60;48.90;;;;;;5078257;28;20067;-72
2020/12/01 08:16:19;;;;;;;4.78;3.20;;;9.60;50.70;;;;;;5080657;28;20107;-72
2020/12/01 08:18:48;;;;;;;8.27;3.80;;;9.50;52.00;;;;;;5072398;28;20032;-72
2020/12/01 08:21:31;;;;;;;8.43;4.50;;;9.50;50.40;;;;;;5080968;28;20020;-72
2020/12/01 08:24:02;;;;;;;14.68;3.95;;;9.50;52.30;;;;;;5081981;28;20025;-72
2020/12/01 08:26:32;;;;;;;9.15;3.38;;;9.50;53.60;;;;;;5075990;28;21046;-72
2020/12/01 08:29:19;;;;;;;5.53;3.00;;;9.40;53.10;;;;;;5079999;28;20078;-72
2020/12/01 08:32:07;;;;;;;8.40;3.25;;;9.30;53.30;;;;;;5069259;28;20453;-72
2020/12/01 08:34:35;;;;;;;6.40;3.55;;;9.30;51.80;;;;;;5073886;28;20043;-72
2020/12/01 08:37:23;;;;;;;3.88;3.00;;;9.30;53.00;;;;;;5071076;28;20052;-73
2020/12/01 08:40:05;;;;;;;6.00;3.10;;;9.30;52.70;;;;;;5073820;28;20052;-73
2020/12/01 08:42:47;;;;;;;5.95;2.70;;;9.10;54.90;;;;;;5073543;28;20020;-72
2020/12/01 08:45:38;;;;;;;8.65;5.05;;;9.10;53.70;;;;;;5074274;28;20056;-74
2020/12/01 08:48:14;;;;;;;7.10;3.33;;;9.10;52.70;;;;;;5062774;28;20047;-74
2020/12/01 08:50:42;;;;;;;5.97;3.20;;;9.00;58.00;;;;;;5072245;28;20042;-72
2020/12/01 08:53:13;;;;;;;6.80;3.60;;;9.10;54.90;;;;;;5073400;28;20060;-73
2020/12/01 08:55:43;;;;;;;13.13;2.83;;;9.00;55.00;;;;;;5073532;28;20509;-72
2020/12/01 08:58:35;;;;;;;5.38;2.85;;;9.10;55.00;;;;;;5078571;28;20040;-72
2020/12/01 09:01:05;;;;;;;6.10;3.05;;;9.00;54.00;;;;;;5072888;28;20034;-74
2020/12/01 09:03:32;;;;;;;4.18;2.47;;;9.00;55.70;;;;;;5073279;28;20020;-74
2020/12/01 09:06:00;;;;;;;5.28;2.63;;;9.00;57.90;;;;;;5072776;28;20404;-76
2020/12/01 09:14:05;;;;;;;3.25;2.85;;;8.90;55.80;;;;;;5078774;28;20059;-73
2020/12/01 09:20:14;;;;;;;3.00;2.42;;;8.90;57.10;;;;;;5081704;28;20457;-73
2020/12/01 09:22:30;;;;;;;5.55;3.25;;;8.90;56.00;;;;;;5077877;28;20123;-73
2020/12/01 09:25:25;;;;;;;3.73;2.80;;;8.90;56.40;;;;;;5086056;28;20020;-72
2020/12/01 09:27:54;;;;;;;3.55;2.78;;;8.90;56.20;;;;;;5066636;28;20032;-72
2020/12/01 09:30:38;;;;;;;2.92;2.70;;;8.80;57.40;;;;;;5087373;28;20040;-72
2020/12/01 09:33:09;;;;;;;3.92;3.15;;;8.80;55.80;;;;;;5072623;28;20017;-72
2020/12/01 09:35:36;;;;;;;4.75;3.20;;;8.80;56.60;;;;;;5071768;28;20361;-72
2020/12/01 09:38:03;;;;;;;5.20;2.65;;;8.80;56.60;;;;;;5076647;28;20024;-72
2020/12/01 09:40:32;;;;;;;6.38;3.05;;;8.90;57.10;;;;;;5072693;28;21297;-72
2020/12/01 09:43:07;;;;;;;6.72;3.10;;;8.90;57.10;;;;;;5074705;28;20017;-72
2020/12/01 09:45:35;;;;;;;10.40;2.95;;;8.90;57.00;;;;;;5073055;28;20040;-72
2020/12/01 09:48:27;;;;;;;5.10;2.80;;;8.90;58.00;;;;;;5077201;28;20407;-73
2020/12/01 09:50:53;;;;;;;8.88;3.42;;;8.90;58.00;;;;;;5056699;28;20465;-72
2020/12/01 09:56:11;;;;;;;10.77;3.58;;;8.90;58.40;;;;;;5073713;28;20507;-73
2020/12/01 09:59:05;;;;;;;5.78;2.97;;;8.90;57.80;;;;;;5075603;28;20022;-72
2020/12/01 10:10:13;;;;;;;5.13;3.28;;;9.00;58.40;;;;;;5056783;28;20036;-72
2020/12/01 10:18:16;;;;;;;5.93;3.30;;;9.00;58.50;;;;;;5082443;28;20039;-72
2020/12/01 10:21:59;;;;;;;6.40;3.63;;;9.10;57.70;;;;;;5073994;28;20396;-73
2020/12/01 10:32:08;;;;;;;5.13;2.90;;;9.10;56.10;;;;;;5075699;28;20379;-73
2020/12/01 10:37:34;;;;;;;3.70;2.50;;;9.00;59.70;;;;;;5062459;28;20174;-72
2020/12/01 10:40:01;;;;;;;5.00;2.45;;;9.00;58.40;;;;;;5075624;28;20021;-72
2020/12/01 10:42:28;;;;;;;7.47;3.00;;;9.00;58.60;;;;;;5075351;28;20027;-72
2020/12/01 10:44:54;;;;;;;5.22;2.97;;;9.00;58.60;;;;;;5073205;28;20032;-72
2020/12/01 10:47:22;;;;;;;6.97;4.00;;;8.90;59.00;;;;;;5075626;28;20020;-72
2020/12/01 10:49:50;;;;;;;9.73;4.50;;;9.00;56.50;;;;;;5067059;28;20111;-72
2020/12/01 10:52:16;;;;;;;5.15;2.95;;;9.00;59.30;;;;;;5072100;28;20032;-72
2020/12/01 10:54:43;;;;;;;9.02;3.28;;;9.00;56.50;;;;;;5072614;28;20017;-72
2020/12/01 10:57:09;;;;;;;8.88;3.63;;;9.20;57.80;;;;;;5068118;28;20021;-72
2020/12/01 10:59:36;;;;;;;9.52;4.25;;;9.30;58.30;;;;;;5076571;28;20070;-73
2020/12/01 11:02:03;;;;;;;6.50;4.05;;;9.40;58.90;;;;;;5075090;28;20025;-74
2020/12/01 11:04:29;;;;;;;6.88;3.17;;;9.30;61.20;;;;;;5075535;28;20395;-72
2020/12/01 11:06:56;;;;;;;5.13;3.10;;;9.30;61.60;;;;;;5075472;28;20029;-72
2020/12/01 11:09:22;;;;;;;4.95;3.60;;;9.30;59.20;;;;;;5076772;28;20032;-72
2020/12/01 11:11:49;;;;;;;5.68;3.22;;;9.40;58.00;;;;;;5076954;28;20035;-73
2020/12/01 11:14:15;;;;;;;6.32;4.38;;;9.60;59.20;;;;;;5076434;28;20036;-72
2020/12/01 11:16:42;;;;;;;11.70;4.30;;;9.80;61.50;;;;;;5076232;28;20451;-72
2020/12/01 11:19:08;;;;;;;14.15;4.25;;;9.90;61.30;;;;;;5076534;28;20103;-72
2020/12/01 11:21:37;;;;;;;13.93;4.10;;;9.90;60.90;;;;;;5074362;28;20028;-72
2020/12/01 11:24:04;;;;;;;6.78;3.67;;;9.80;60.00;;;;;;5074354;28;20393;-73
2020/12/01 11:26:31;;;;;;;8.57;3.47;;;9.80;60.10;;;;;;5074557;28;20033;-71
2020/12/01 11:28:57;;;;;;;7.05;3.63;;;9.80;60.20;;;;;;5075485;28;20035;-72
2020/12/01 11:31:24;;;;;;;6.45;3.25;;;10.00;61.20;;;;;;5074068;28;20028;-72
2020/12/01 11:34:09;;;;;;;6.28;3.42;;;9.90;61.10;;;;;;5076453;28;20111;-72
2020/12/01 11:36:36;;;;;;;4.05;3.10;;;9.80;59.20;;;;;;5073058;28;20028;-72
2020/12/01 11:39:09;;;;;;;7.53;3.47;;;9.80;61.80;;;;;;5073246;28;20016;-72
2020/12/01 11:41:36;;;;;;;5.03;3.05;;;9.80;59.60;;;;;;5061063;28;20077;-72
2020/12/01 11:44:03;;;;;;;7.18;2.72;;;9.90;60.30;;;;;;5074506;28;20408;-72
2020/12/01 11:46:30;;;;;;;8.27;3.83;;;9.80;60.40;;;;;;5074758;28;20474;-74
2020/12/01 11:49:01;;;;;;;8.98;3.88;;;9.80;60.50;;;;;;5075177;28;20030;-73
2020/12/01 11:51:31;;;;;;;6.82;3.40;;;9.70;62.20;;;;;;5073896;28;20115;-72
2020/12/01 11:53:58;;;;;;;9.63;3.58;;;9.80;60.40;;;;;;5075340;28;20024;-72
2020/12/01 11:56:25;;;;;;;7.13;3.42;;;9.70;60.00;;;;;;5073604;28;20048;-73
2020/12/01 11:58:52;;;;;;;8.82;3.88;;;9.80;61.00;;;;;;5070572;28;20020;-72
2020/12/01 12:01:18;;;;;;;6.78;3.45;;;9.80;61.60;;;;;;5072662;28;20031;-72
2020/12/01 12:03:45;;;;;;;11.95;3.30;;;9.80;60.90;;;;;;5071727;28;20032;-73
2020/12/01 12:06:12;;;;;;;19.95;4.10;;;9.80;61.10;;;;;;5072882;28;20032;-73
2020/12/01 12:08:40;;;;;;;5.15;2.97;;;9.60;62.80;;;;;;5073871;28;20115;-73
2020/12/01 12:11:06;;;;;;;3.28;2.58;;;9.50;61.80;;;;;;5073746;28;20085;-73
2020/12/01 12:13:33;;;;;;;6.68;3.05;;;9.40;62.50;;;;;;5075134;28;20031;-73
2020/12/01 12:15:59;;;;;;;5.93;3.17;;;9.40;62.30;;;;;;5074119;28;20481;-72
2020/12/01 12:18:26;;;;;;;3.97;2.85;;;9.40;61.80;;;;;;5074027;28;20349;-73
2020/12/01 12:20:52;;;;;;;8.77;3.50;;;9.40;62.00;;;;;;5072467;28;20021;-72
2020/12/01 12:23:19;;;;;;;7.10;3.70;;;9.40;60.40;;;;;;5070922;28;20111;-73
2020/12/01 12:25:45;;;;;;;5.75;2.95;;;9.50;60.00;;;;;;5075817;28;20028;-74
2020/12/01 12:28:12;;;;;;;5.85;2.88;;;9.40;62.30;;;;;;5073186;28;20043;-72
2020/12/01 12:30:38;;;;;;;7.60;3.63;;;9.40;60.60;;;;;;5074609;28;20115;-72
2020/12/01 12:33:05;;;;;;;8.18;3.70;;;9.40;60.20;;;;;;5073623;28;20028;-72
2020/12/01 12:35:31;;;;;;;5.60;3.47;;;9.40;60.40;;;;;;5072814;28;20031;-72
2020/12/01 12:37:58;;;;;;;8.75;3.85;;;9.40;61.20;;;;;;5067997;28;20122;-72
2020/12/01 12:40:24;;;;;;;6.05;3.08;;;9.30;61.20;;;;;;5072947;28;20016;-73
2020/12/01 12:42:51;;;;;;;5.20;3.08;;;9.30;60.00;;;;;;5072292;28;20099;-73
2020/12/01 12:45:17;;;;;;;6.22;2.72;;;9.30;60.90;;;;;;5074309;28;20040;-72
2020/12/01 12:47:44;;;;;;;4.85;3.33;;;9.20;62.10;;;;;;5072989;28;20089;-72
2020/12/01 12:50:10;;;;;;;3.15;2.75;;;9.20;62.50;;;;;;5068129;28;20357;-73
2020/12/01 12:52:37;;;;;;;6.82;3.08;;;9.10;62.90;;;;;;5073386;28;20090;-72
2020/12/01 12:55:05;;;;;;;6.95;3.50;;;9.10;62.50;;;;;;5063995;28;20029;-72
2020/12/01 12:57:31;;;;;;;3.88;2.55;;;9.10;62.80;;;;;;5064731;28;20020;-71
2020/12/01 12:59:57;;;;;;;7.22;3.00;;;9.00;62.70;;;;;;5072268;28;20050;-72
2020/12/01 13:02:24;;;;;;;5.80;3.33;;;9.00;62.60;;;;;;5073603;28;20029;-72
2020/12/01 13:04:50;;;;;;;4.07;2.50;;;9.00;62.10;;;;;;5071855;28;20489;-72
2020/12/01 13:07:17;;;;;;;5.85;3.30;;;8.90;61.90;;;;;;5070016;28;20120;-72
2020/12/01 13:09:43;;;;;;;7.50;3.25;;;8.90;61.70;;;;;;5071561;28;20025;-74
2020/12/01 13:12:10;;;;;;;4.05;2.63;;;8.80;62.30;;;;;;5069839;28;20489;-76
2020/12/01 13:14:36;;;;;;;8.85;3.97;;;8.80;61.80;;;;;;5071693;28;20028;-72
2020/12/01 13:17:03;;;;;;;4.75;2.97;;;8.80;60.10;;;;;;5072183;28;20028;-72
2020/12/01 13:19:29;;;;;;;4.57;2.72;;;8.70;62.70;;;;;;5073316;28;20035;-72
2020/12/01 13:21:56;;;;;;;6.60;3.17;;;8.70;62.10;;;;;;5069109;28;20021;-72
2020/12/01 13:24:22;;;;;;;11.38;4.25;;;8.60;61.80;;;;;;5079099;28;20032;-73
2020/12/01 13:26:51;;;;;;;6.65;3.67;;;8.60;61.20;;;;;;5070607;28;20033;-72
2020/12/01 13:29:18;;;;;;;8.25;2.75;;;8.70;61.10;;;;;;5055800;28;20028;-73
2020/12/01 13:31:48;;;;;;;7.82;3.80;;;8.60;62.30;;;;;;5066128;28;20025;-72
2020/12/01 13:34:16;;;;;;;7.18;2.95;;;8.50;62.40;;;;;;5069145;28;20106;-72
2020/12/01 13:36:42;;;;;;;7.95;2.63;;;8.50;62.50;;;;;;5069898;28;20051;-72
2020/12/01 13:39:10;;;;;;;5.70;3.13;;;8.40;62.60;;;;;;5072132;28;20025;-72
2020/12/01 13:41:37;;;;;;;7.00;3.22;;;8.40;62.20;;;;;;5068946;28;20458;-72
2020/12/01 13:44:03;;;;;;;4.75;2.55;;;8.40;62.00;;;;;;5089781;28;20460;-72
2020/12/01 13:46:30;;;;;;;6.60;2.92;;;8.40;62.10;;;;;;5067079;28;20025;-72
2020/12/01 13:48:58;;;;;;;10.35;4.45;;;8.40;61.80;;;;;;5073225;28;20024;-72